Terminal Aerodrome Forecast
Issued by NWS

Home | Current Version | Previous Version | Text Only | Print | Product List | Glossary On
Versions: 1 2 3 4 5 6 7 8 9 10 11 12 13 14 15 16 17 18 19 20 21 22 23 24 25 26 27 28 29 30 31 32 33 34 35 36
000
FTUS45 KSLC 222340
TAFSGU
TAF
KSGU 222340Z 2300/2324 23016KT P6SM VCSH SCT060 BKN100
     FM230200 19008KT P6SM -SHRA SCT040 BKN070
     FM230800 18008KT P6SM VCSH SCT060 BKN090
     FM231900 27010KT P6SM -SHRA SCT040 BKN060=

USA.gov is the U.S. government's official web portal to all federal, state and local government web resources and services.